Main page
METAR-TAF:

METAR-TAF

Airports :

La Romana International Airport

La Romana, Dominican Republic

latitude: 18-25N, longitude: 068-57W, elevation: 8 m

Current weather observation

The report was made 58 minutes ago, at 02:00 UTC
Calm wind
Temperature 26°C
Humidity 94%
Pressure 1016 hPa
Visibility 10 km or more
Few clouds at a height of 1800 ft

METAR: MDLR 160200Z 00000KT 9999 FEW018 26/25 Q1016

Time: 22:58 (02:58 UTC)

Forecast

The report was made 4 hours and 58 minutes ago, at 22:00 UTC
Forecast valid from 16 at 00 UTC to 17 at 00 UTC
Wind 4 kt from the South/Southeast
Visibility 10 km or more
Few clouds at a height of 1600 ft, Cumulonimbus.
Few clouds at a height of 2000 ft
Scattered clouds at a height of 30000 ft
Becoming
from 16 at 01 UTC to 16 at 03 UTC
Wind kt from the North

TAF: MDLR 152200Z 1600/1700 15004KT 9999 FEW016CB FEW020 SCT300 BECMG 1601/1603 00000KT

Weather observations and forecasts of more than 4000 airports (METAR and TAF reports).

The available stations are represented by yellow and red dots on the map.

Hover mouse over dot to see the name of the station.

Then click to see weather observations and forecasts.

To change the map : click on the green buttons with a black cross to zoom in, on the green button with a dash to zoom out, or on the green arrows for adjacent maps.


METAR-TAF: